Time;durP1;ratioP1;P1;durP2;ratioP2;P2;SDS_P1;SDS_P2;PMS_P1;PMS_P2;Temp;Humidity;BMP_temperature;BMP_pressure;BME280_temperature;BME280_humidity;BME280_pressure;Samples;Min_cycle;Max_cycle;Signal;HPM_P1;HPM_P2
2022/06/13 00:02:49;;;;;;;3.67;1.60;;;;;;;19.27;71.30;100423.00;5530067;32;34667;-66
2022/06/13 00:05:52;;;;;;;9.38;1.60;;;;;;;19.20;72.17;100416.91;5530714;32;33841;-66
2022/06/13 00:08:54;;;;;;;3.62;1.90;;;;;;;19.23;71.44;100419.13;5531795;32;34162;-67
2022/06/13 00:11:57;;;;;;;3.22;1.98;;;;;;;19.04;72.13;100426.38;5532313;32;33994;-66
2022/06/13 00:15:00;;;;;;;2.83;1.73;;;;;;;19.07;72.63;100425.12;5532478;32;34058;-66
2022/06/13 00:18:04;;;;;;;4.45;1.98;;;;;;;19.16;73.06;100415.72;5532208;32;33984;-66
2022/06/13 00:21:07;;;;;;;3.67;1.75;;;;;;;19.34;72.41;100420.28;5532223;32;34672;-66
2022/06/13 00:24:10;;;;;;;2.03;1.52;;;;;;;19.19;72.81;100417.13;5532219;32;34663;-66
2022/06/13 00:27:12;;;;;;;2.62;1.95;;;;;;;19.01;74.71;100412.56;5532140;32;33984;-66
2022/06/13 00:30:15;;;;;;;5.20;1.90;;;;;;;18.99;74.52;100411.94;5531492;32;33368;-66
2022/06/13 00:33:18;;;;;;;3.30;2.00;;;;;;;18.74;75.42;100411.13;5532111;32;33917;-66
2022/06/13 00:36:23;;;;;;;2.55;1.90;;;;;;;18.61;76.44;100409.38;5532117;32;34040;-66
2022/06/13 00:39:25;;;;;;;2.95;2.00;;;;;;;18.61;77.53;100410.22;5531804;32;34103;-67
2022/06/13 00:42:28;;;;;;;3.50;1.90;;;;;;;18.58;77.93;100397.22;5531957;32;34606;-66
2022/06/13 00:45:35;;;;;;;4.47;2.17;;;;;;;18.50;78.52;100399.31;5532289;32;34627;-66
2022/06/13 00:48:38;;;;;;;4.60;2.25;;;;;;;18.41;80.38;100395.25;5532012;32;33884;-66
2022/06/13 00:51:48;;;;;;;4.68;1.90;;;;;;;18.60;80.64;100392.44;5531955;32;34022;-66
2022/06/13 00:54:53;;;;;;;4.80;2.05;;;;;;;18.43;81.53;100385.94;5532129;32;34758;-66
2022/06/13 00:57:56;;;;;;;3.78;2.20;;;;;;;18.24;82.87;100385.06;5531917;32;33977;-66
2022/06/13 01:00:59;;;;;;;2.78;2.10;;;;;;;18.21;85.28;100385.47;5531862;32;34709;-66
2022/06/13 01:04:04;;;;;;;4.00;2.12;;;;;;;18.22;86.25;100384.44;5531889;32;33941;-66
2022/06/13 01:07:09;;;;;;;4.30;2.05;;;;;;;18.31;85.79;100376.94;5531941;32;33827;-66
2022/06/13 01:13:59;;;;;;;2.95;1.98;;;;;;;18.26;85.52;100382.13;5531788;32;33996;-66
2022/06/13 01:17:25;;;;;;;2.70;2.00;;;;;;;18.20;86.22;100383.03;5502697;32;34704;-65
2022/06/13 01:20:49;;;;;;;2.55;1.85;;;;;;;18.26;85.80;100374.06;5531724;32;34179;-66
2022/06/13 01:24:19;;;;;;;3.12;2.28;;;;;;;18.11;85.53;100371.69;5532049;32;34650;-65
2022/06/13 01:28:03;;;;;;;3.22;2.20;;;;;;;18.39;82.20;100367.81;5531769;32;34044;-66
2022/06/13 01:31:27;;;;;;;2.85;2.25;;;;;;;18.52;81.15;100376.56;5510770;32;33845;-66
2022/06/13 01:34:42;;;;;;;2.78;1.87;;;;;;;18.25;82.40;100362.50;5531868;32;34007;-66
2022/06/13 01:37:54;;;;;;;3.60;2.08;;;;;;;17.99;83.49;100364.56;5531545;32;34040;-66
2022/06/13 01:41:14;;;;;;;2.62;2.25;;;;;;;18.05;83.03;100363.72;5531581;32;34006;-66
2022/06/13 01:44:44;;;;;;;2.90;2.10;;;;;;;18.15;81.81;100367.53;5531358;32;34134;-66
2022/06/13 01:48:07;;;;;;;2.40;2.20;;;;;;;18.10;81.86;100364.72;5531508;32;34510;-66
2022/06/13 01:51:30;;;;;;;4.37;2.30;;;;;;;17.86;82.58;100362.81;5531474;32;34012;-66
2022/06/13 01:54:54;;;;;;;4.90;2.47;;;;;;;17.62;84.35;100360.88;5531457;32;33971;-66
2022/06/13 01:58:03;;;;;;;3.78;2.20;;;;;;;17.43;86.46;100359.88;5531412;32;34598;-67
2022/06/13 02:01:21;;;;;;;4.20;2.22;;;;;;;17.42;86.29;100354.72;5531649;32;34005;-67
2022/06/13 02:04:36;;;;;;;3.40;2.30;;;;;;;17.27;86.57;100349.63;5530556;32;34096;-66
2022/06/13 02:07:44;;;;;;;3.17;2.40;;;;;;;17.13;87.44;100346.19;5531542;32;34623;-66
2022/06/13 02:11:16;;;;;;;5.47;2.17;;;;;;;17.25;87.59;100343.66;5531286;32;34256;-66
2022/06/13 02:14:42;;;;;;;6.93;2.53;;;;;;;17.41;86.11;100351.22;5531283;32;33963;-66
2022/06/13 02:17:50;;;;;;;5.53;2.60;;;;;;;17.33;85.58;100352.28;5531428;32;34189;-66
2022/06/13 02:20:58;;;;;;;3.00;2.37;;;;;;;17.17;88.51;100350.09;5531126;32;34040;-67
2022/06/13 02:24:04;;;;;;;2.80;2.40;;;;;;;16.95;88.85;100351.34;5531248;32;34444;-67
2022/06/13 02:27:11;;;;;;;2.90;2.33;;;;;;;16.81;89.63;100353.25;5531113;32;33904;-67
2022/06/13 02:30:18;;;;;;;2.55;2.35;;;;;;;16.73;90.27;100352.66;5530829;32;34728;-67
2022/06/13 02:33:29;;;;;;;3.37;2.17;;;;;;;16.63;91.58;100350.41;5531096;32;34327;-67
2022/06/13 02:36:35;;;;;;;3.50;2.70;;;;;;;16.58;92.11;100347.50;5531368;32;33873;-67
2022/06/13 02:39:59;;;;;;;2.95;2.35;;;;;;;16.73;93.98;100342.75;5530941;32;33914;-67
2022/06/13 02:43:15;;;;;;;3.37;2.20;;;;;;;16.78;92.53;100347.50;5531024;32;33904;-67
2022/06/13 02:46:27;;;;;;;3.95;2.62;;;;;;;16.66;92.77;100347.28;5530941;32;34617;-67
2022/06/13 02:49:40;;;;;;;3.08;2.40;;;;;;;16.64;93.42;100345.87;5530914;32;34129;-67
2022/06/13 02:52:49;;;;;;;3.95;2.53;;;;;;;16.53;94.12;100339.25;5531204;32;33945;-67
2022/06/13 02:56:11;;;;;;;2.97;2.20;;;;;;;16.55;95.04;100341.72;5530822;32;33982;-67
2022/06/13 02:59:27;;;;;;;4.75;2.40;;;;;;;16.45;96.06;100342.97;5530779;32;33972;-67
2022/06/13 03:03:00;;;;;;;3.55;2.70;;;;;;;16.42;96.34;100346.03;5530761;32;34699;-67
2022/06/13 03:06:19;;;;;;;4.07;2.90;;;;;;;16.41;96.50;100339.03;5530873;32;33887;-67
2022/06/13 03:09:35;;;;;;;8.32;2.60;;;;;;;16.39;97.01;100345.63;5530823;32;34183;-67
2022/06/13 03:13:05;;;;;;;3.90;2.47;;;;;;;16.42;97.16;100339.88;5530701;32;34646;-68
2022/06/13 03:16:26;;;;;;;4.12;2.35;;;;;;;16.47;97.28;100338.22;5530379;32;34348;-67
2022/06/13 03:19:52;;;;;;;3.58;2.53;;;;;;;16.52;97.50;100341.09;5530545;32;34391;-67
2022/06/13 03:23:18;;;;;;;3.62;2.70;;;;;;;16.71;96.75;100335.94;5530338;32;35437;-67
2022/06/13 03:26:28;;;;;;;3.50;2.30;;;;;;;16.65;96.95;100340.31;5530841;32;33994;-66
2022/06/13 03:29:38;;;;;;;5.53;2.42;;;;;;;16.61;97.57;100339.06;5530339;32;34717;-66
2022/06/13 03:33:39;;;;;;;3.20;2.60;;;;;;;16.90;93.93;100335.09;5530230;32;34019;-67
2022/06/13 03:36:23;;;;;;;2.95;2.12;;;;;;;16.89;93.92;100336.94;5530199;32;34616;-67
2022/06/13 03:39:32;;;;;;;4.43;2.30;;;;;;;16.91;93.32;100334.88;5529993;32;34023;-68
2022/06/13 03:42:41;;;;;;;3.40;2.40;;;;;;;16.93;93.64;100332.00;5532472;32;34533;-67
2022/06/13 03:45:51;;;;;;;4.28;2.03;;;;;;;16.99;92.77;100328.50;5532394;32;34617;-67
2022/06/13 03:48:56;;;;;;;;;;;;;;;17.37;88.81;100325.88;5532790;32;34193;-67
2022/06/13 03:52:01;;;;;;;3.58;2.12;;;;;;;17.34;90.73;100329.78;5532579;32;34273;-67
2022/06/13 03:55:12;;;;;;;5.25;2.12;;;;;;;17.36;90.76;100332.28;5532175;32;35328;-67
2022/06/13 03:58:19;;;;;;;2.58;2.05;;;;;;;17.37;91.45;100332.06;5532390;32;34387;-67
2022/06/13 04:01:39;;;;;;;3.22;2.10;;;;;;;17.44;89.69;100339.22;5532328;32;33972;-67
2022/06/13 04:04:46;;;;;;;3.55;2.72;;;;;;;17.44;88.07;100337.38;5532399;32;34033;-67
2022/06/13 04:07:49;;;;;;;4.47;2.25;;;;;;;17.43;85.36;100341.09;5532649;32;33978;-67
2022/06/13 04:11:11;;;;;;;4.20;2.33;;;;;;;17.51;84.14;100340.03;5532331;32;34103;-67
2022/06/13 04:14:14;;;;;;;7.12;2.12;;;;;;;17.54;84.38;100336.91;5532596;32;33925;-67
2022/06/13 04:17:21;;;;;;;2.47;2.08;;;;;;;17.81;83.54;100330.41;5532030;32;33974;-66
2022/06/13 04:20:48;;;;;;;2.42;1.90;;;;;;;17.92;82.83;100332.37;5532275;32;33968;-67
2022/06/13 04:24:02;;;;;;;4.47;2.37;;;;;;;18.03;82.39;100329.03;5532227;32;35261;-67
2022/06/13 04:27:05;;;;;;;4.80;2.50;;;;;;;18.06;84.49;100331.25;5531163;32;34113;-67
2022/06/13 04:30:14;;;;;;;2.78;2.40;;;;;;;18.04;83.96;100336.03;5532164;32;34239;-68
2022/06/13 04:33:23;;;;;;;3.97;2.37;;;;;;;18.07;84.76;100330.22;5531989;32;33929;-67
2022/06/13 04:36:29;;;;;;;3.40;2.62;;;;;;;18.22;84.04;100344.16;5532001;32;34264;-67
2022/06/13 04:39:35;;;;;;;5.62;2.60;;;;;;;18.38;83.33;100345.50;5532178;32;35300;-67
2022/06/13 04:42:41;;;;;;;2.62;2.08;;;;;;;18.55;82.61;100348.47;5531546;32;33921;-67
2022/06/13 04:45:51;;;;;;;4.97;3.00;;;;;;;18.71;81.59;100353.28;5531964;32;35158;-67
2022/06/13 04:48:58;;;;;;;3.78;2.55;;;;;;;18.72;81.78;100341.50;5531682;32;34607;-67
2022/06/13 04:52:06;;;;;;;5.93;2.17;;;;;;;18.90;80.99;100341.50;5531250;32;34019;-66
2022/06/13 04:55:19;;;;;;;3.20;1.98;;;;;;;19.00;80.77;100341.00;5530987;32;33326;-66
2022/06/13 04:58:33;;;;;;;2.25;1.80;;;;;;;19.17;76.65;100336.66;5531966;32;35012;-66
2022/06/13 05:01:44;;;;;;;4.68;1.75;;;;;;;19.26;76.13;100334.50;5531539;32;33967;-66
2022/06/13 05:04:46;;;;;;;2.40;1.58;;;;;;;19.23;73.60;100338.44;5532017;32;34003;-66
2022/06/13 05:07:49;;;;;;;3.90;1.73;;;;;;;19.27;71.84;100336.94;5531452;32;33876;-66
2022/06/13 05:10:57;;;;;;;3.08;1.85;;;;;;;19.60;67.82;100338.44;5531489;32;34230;-67
2022/06/13 05:14:09;;;;;;;3.83;1.70;;;;;;;19.55;68.77;100331.06;5531500;32;33861;-66
2022/06/13 05:17:34;;;;;;;3.17;2.03;;;;;;;19.57;68.25;100337.00;5531581;32;33904;-66
2022/06/13 05:21:00;;;;;;;4.47;1.77;;;;;;;19.59;68.72;100332.25;5531469;32;34636;-67
2022/06/13 05:24:06;;;;;;;4.85;1.55;;;;;;;19.70;68.88;100323.41;5530856;32;33854;-66
2022/06/13 05:27:09;;;;;;;3.12;1.83;;;;;;;19.87;68.33;100329.75;5531213;32;34163;-66
2022/06/13 05:30:16;;;;;;;2.90;1.67;;;;;;;20.07;66.61;100325.94;5530164;32;33094;-66
2022/06/13 05:33:22;;;;;;;3.28;2.03;;;;;;;20.26;65.20;100330.19;5531002;32;34096;-66
2022/06/13 05:36:27;;;;;;;2.30;1.62;;;;;;;20.31;65.27;100333.06;5530891;32;33970;-66
2022/06/13 05:39:30;;;;;;;2.78;1.70;;;;;;;20.40;65.14;100337.03;5530353;32;34111;-66
2022/06/13 05:42:32;;;;;;;4.15;1.77;;;;;;;20.57;65.02;100337.19;5531004;32;34245;-66
2022/06/13 05:45:41;;;;;;;2.80;1.70;;;;;;;20.70;67.41;100335.06;5530690;32;34633;-66
2022/06/13 05:48:43;;;;;;;3.67;1.65;;;;;;;20.82;65.48;100335.03;5530688;32;34596;-66
2022/06/13 05:51:46;;;;;;;3.28;1.62;;;;;;;20.96;65.27;100336.44;5530294;32;33825;-67
2022/06/13 05:54:49;;;;;;;2.17;1.73;;;;;;;21.03;64.42;100333.62;5530950;32;34064;-67
2022/06/13 05:57:52;;;;;;;2.60;1.67;;;;;;;21.21;64.27;100331.63;5530814;32;34710;-67
2022/06/13 06:00:57;;;;;;;4.10;1.60;;;;;;;21.29;62.17;100332.31;5530046;32;34357;-66
2022/06/13 06:04:00;;;;;;;3.05;1.45;;;;;;;21.34;61.96;100332.44;5529755;32;34644;-67
2022/06/13 06:07:03;;;;;;;1.70;1.35;;;;;;;21.46;61.45;100336.72;5530989;32;34083;-67
2022/06/13 06:10:08;;;;;;;2.92;1.50;;;;;;;21.59;60.06;100338.34;5530230;32;34377;-67
2022/06/13 06:13:14;;;;;;;3.83;1.80;;;;;;;21.67;59.67;100335.22;5530673;32;34156;-67
2022/06/13 06:16:19;;;;;;;2.05;1.67;;;;;;;21.80;60.44;100337.62;5530627;32;34064;-67
2022/06/13 06:19:22;;;;;;;2.33;1.70;;;;;;;21.96;61.63;100341.47;5530871;32;34182;-67
2022/06/13 06:22:25;;;;;;;2.03;1.45;;;;;;;22.06;62.30;100337.06;5530006;32;34044;-67
2022/06/13 06:25:27;;;;;;;1.83;1.20;;;;;;;22.27;58.86;100330.09;5530666;32;34827;-67
2022/06/13 06:28:31;;;;;;;1.98;1.50;;;;;;;22.35;56.76;100334.28;5530713;32;33916;-67
2022/06/13 06:31:34;;;;;;;3.10;1.90;;;;;;;22.49;55.06;100338.31;5530367;32;34168;-68
2022/06/13 06:34:37;;;;;;;2.28;1.73;;;;;;;22.46;55.60;100331.50;5529989;32;32370;-68
2022/06/13 06:37:45;;;;;;;4.05;1.83;;;;;;;22.63;56.47;100338.78;5530595;32;34068;-68
2022/06/13 06:40:49;;;;;;;5.63;1.80;;;;;;;22.78;54.78;100344.44;5529793;32;34567;-68
2022/06/13 06:43:51;;;;;;;2.70;1.70;;;;;;;23.01;53.31;100346.94;5530580;32;34077;-67
2022/06/13 06:46:54;;;;;;;2.70;1.75;;;;;;;23.17;52.12;100339.84;5529818;32;35544;-68
2022/06/13 06:49:57;;;;;;;5.80;1.95;;;;;;;23.27;51.24;100334.56;5530543;32;34007;-69
2022/06/13 06:53:01;;;;;;;2.42;1.37;;;;;;;23.43;51.68;100322.81;5530327;32;34219;-68
2022/06/13 07:02:47;;;;;;;2.62;1.40;;;;;;;23.88;49.47;100322.53;5530180;32;35004;-68
2022/06/13 07:05:51;;;;;;;1.85;1.30;;;;;;;24.11;48.48;100327.63;5530393;32;34399;-66
2022/06/13 07:08:53;;;;;;;2.65;1.45;;;;;;;24.22;46.85;100329.38;5530461;32;35213;-68
2022/06/13 07:11:57;;;;;;;2.30;1.45;;;;;;;24.60;46.75;100324.78;5529437;32;33968;-67
2022/06/13 07:14:59;;;;;;;2.95;1.62;;;;;;;24.89;47.91;100330.69;5529090;32;32726;-68
2022/06/13 07:18:02;;;;;;;2.42;1.50;;;;;;;25.00;44.42;100332.37;5530135;32;34563;-68
2022/06/13 07:21:05;;;;;;;2.53;1.30;;;;;;;25.22;44.71;100321.34;5529960;32;34407;-67
2022/06/13 07:24:08;;;;;;;2.70;1.45;;;;;;;25.68;44.24;100327.78;5530025;32;34626;-67
2022/06/13 07:27:11;;;;;;;3.08;1.30;;;;;;;25.93;42.57;100328.66;5529955;32;35142;-67
2022/06/13 07:30:16;;;;;;;1.67;1.30;;;;;;;26.01;40.34;100327.28;5529916;32;34477;-67
2022/06/13 07:33:19;;;;;;;4.28;1.48;;;;;;;26.26;41.02;100319.16;5529722;32;34521;-67
2022/06/13 07:36:22;;;;;;;3.17;1.60;;;;;;;26.51;41.68;100321.06;5529537;32;34338;-68
2022/06/13 07:39:25;;;;;;;2.15;1.35;;;;;;;26.60;39.73;100318.59;5529154;32;33929;-67
2022/06/13 07:42:32;;;;;;;2.80;1.40;;;;;;;27.22;38.90;100318.97;5529660;32;34027;-66
2022/06/13 07:45:39;;;;;;;4.45;1.30;;;;;;;28.18;37.73;100320.34;5529461;32;35241;-67
2022/06/13 07:48:54;;;;;;;3.15;1.42;;;;;;;28.83;36.55;100312.66;5528582;32;34180;-67
2022/06/13 07:51:56;;;;;;;3.15;1.50;;;;;;;29.46;35.04;100309.72;5529135;32;32731;-68
2022/06/13 07:54:59;;;;;;;2.45;1.42;;;;;;;30.34;34.36;100312.50;5528887;32;33901;-68
2022/06/13 07:58:02;;;;;;;3.95;1.25;;;;;;;30.49;32.36;100319.66;5529342;32;34653;-67
2022/06/13 08:01:06;;;;;;;2.67;1.40;;;;;;;31.00;32.63;100322.22;5529569;32;34822;-68
2022/06/13 08:04:09;;;;;;;1.42;1.10;;;;;;;32.07;31.50;100317.97;5528447;32;34205;-68
2022/06/13 08:07:15;;;;;;;3.85;1.20;;;;;;;32.90;28.75;100314.47;5529464;32;33891;-68
2022/06/13 08:10:19;;;;;;;2.75;1.33;;;;;;;32.59;29.76;100306.22;5528644;32;33467;-68
2022/06/13 08:13:22;;;;;;;1.95;1.08;;;;;;;31.67;28.46;100306.03;5529087;32;34679;-68
2022/06/13 08:16:26;;;;;;;6.45;1.20;;;;;;;31.78;29.35;100290.97;5528999;32;34371;-68
2022/06/13 08:19:29;;;;;;;5.95;1.20;;;;;;;32.11;27.91;100289.62;5529313;32;34024;-67
2022/06/13 08:22:32;;;;;;;2.97;1.20;;;;;;;32.75;28.81;100290.97;5529368;32;34631;-66
2022/06/13 08:25:36;;;;;;;3.15;1.20;;;;;;;32.80;27.48;100295.53;5529196;32;34214;-67
2022/06/13 08:28:39;;;;;;;2.55;1.10;;;;;;;32.91;26.88;100291.37;5531912;32;34390;-67
2022/06/13 08:31:42;;;;;;;5.40;1.20;;;;;;;34.24;25.91;100286.16;5531793;32;33977;-67
2022/06/13 08:34:45;;;;;;;2.90;1.08;;;;;;;33.77;26.15;100286.03;5531935;32;34495;-66
2022/06/13 08:37:48;;;;;;;6.07;1.20;;;;;;;33.62;27.57;100287.31;5531508;32;34022;-67
2022/06/13 08:41:07;;;;;;;2.95;1.40;;;;;;;34.21;26.26;100289.59;5531079;32;33965;-66
2022/06/13 08:44:12;;;;;;;3.50;1.27;;;;;;;33.76;27.83;100289.94;5530761;32;32432;-66
2022/06/13 08:47:27;;;;;;;1.80;1.10;;;;;;;34.09;26.31;100284.69;5530543;32;33161;-66
2022/06/13 08:50:55;;;;;;;2.53;1.00;;;;;;;34.59;25.69;100278.59;5531537;32;34859;-67
2022/06/13 08:54:01;;;;;;;3.67;1.10;;;;;;;33.79;27.08;100280.22;5531400;32;34010;-67
2022/06/13 08:57:10;;;;;;;2.20;1.10;;;;;;;35.00;25.61;100277.97;5530816;32;33816;-68
2022/06/13 09:00:19;;;;;;;2.58;1.00;;;;;;;34.09;25.27;100287.47;5531268;32;34347;-68
2022/06/13 09:03:30;;;;;;;1.70;1.20;;;;;;;33.73;25.92;100268.56;5531576;32;33965;-68
2022/06/13 09:06:39;;;;;;;2.00;1.10;;;;;;;33.04;27.94;100273.12;5530638;32;34207;-68
2022/06/13 09:10:09;;;;;;;2.90;1.20;;;;;;;33.86;26.30;100266.78;5518060;32;33124;-68
2022/06/13 09:13:32;;;;;;;3.00;1.08;;;;;;;34.80;25.05;100274.84;5531185;32;34695;-68
2022/06/13 09:16:39;;;;;;;3.58;1.20;;;;;;;34.27;25.65;100264.31;5531459;32;34624;-68
2022/06/13 09:19:54;;;;;;;1.65;0.95;;;;;;;32.85;26.59;100256.09;5518241;32;32740;-69
2022/06/13 09:23:20;;;;;;;3.85;1.27;;;;;;;32.82;26.44;100265.00;5531677;32;35230;-67
2022/06/13 09:26:29;;;;;;;1.95;0.90;;;;;;;33.85;26.54;100249.44;5531357;32;34025;-68
2022/06/13 09:30:00;;;;;;;2.25;1.50;;;;;;;35.40;24.19;100254.34;5531569;32;35315;-69
2022/06/13 09:33:39;;;;;;;2.03;1.02;;;;;;;35.84;23.42;100243.78;5530725;32;33998;-69
2022/06/13 09:37:04;;;;;;;3.28;0.95;;;;;;;35.95;23.31;100242.22;5520574;32;33511;-67
2022/06/13 09:40:07;;;;;;;1.12;0.95;;;;;;;36.33;23.24;100233.69;5531089;32;34226;-69
2022/06/13 09:43:32;;;;;;;5.75;1.60;;;;;;;35.46;23.81;100228.19;5530550;32;33946;-68
2022/06/13 09:46:58;;;;;;;2.10;1.12;;;;;;;32.77;26.62;100225.50;5531390;32;35240;-67
2022/06/13 09:50:22;;;;;;;3.53;1.20;;;;;;;31.69;27.33;100218.78;5531472;32;34141;-67
2022/06/13 09:53:36;;;;;;;1.70;1.20;;;;;;;34.23;24.58;100224.00;5531122;32;33978;-67
2022/06/13 09:56:58;;;;;;;1.40;1.20;;;;;;;35.11;23.67;100216.56;5531058;32;34274;-67
2022/06/13 10:00:07;;;;;;;1.45;1.00;;;;;;;36.62;22.23;100216.13;5530311;32;34656;-68
2022/06/13 10:03:19;;;;;;;1.00;0.90;;;;;;;36.87;22.00;100201.94;5531266;32;34552;-68
2022/06/13 10:06:55;;;;;;;1.20;0.97;;;;;;;37.35;21.34;100203.00;5531306;32;34006;-69
2022/06/13 10:10:04;;;;;;;1.00;0.90;;;;;;;36.90;21.60;100197.66;5530313;32;32595;-68
2022/06/13 10:13:16;;;;;;;1.45;1.02;;;;;;;34.48;23.82;100201.00;5530009;32;33938;-69
2022/06/13 10:16:45;;;;;;;3.00;1.20;;;;;;;35.88;21.82;100197.75;5530223;32;34630;-69
2022/06/13 10:19:56;;;;;;;1.25;1.00;;;;;;;34.86;23.35;100199.06;5531161;32;33909;-67
2022/06/13 10:23:15;;;;;;;1.20;1.00;;;;;;;37.13;21.34;100187.75;5531187;32;33963;-68
2022/06/13 10:26:25;;;;;;;1.75;1.15;;;;;;;38.25;19.71;100189.28;5531037;32;34052;-67
2022/06/13 10:30:04;;;;;;;2.70;1.08;;;;;;;37.72;21.82;100184.28;5484549;32;1511383;-67
2022/06/13 10:33:25;;;;;;;3.58;1.40;;;;;;;37.82;20.99;100181.00;5528368;32;33322;-67
2022/06/13 10:36:54;;;;;;;1.50;1.08;;;;;;;38.27;20.00;100172.31;5530989;32;35164;-69
2022/06/13 10:40:00;;;;;;;1.05;0.95;;;;;;;37.81;20.98;100174.66;5531119;32;34004;-67
2022/06/13 10:43:04;;;;;;;1.48;1.02;;;;;;;38.99;20.14;100173.66;5530761;32;33987;-67
2022/06/13 10:46:10;;;;;;;1.60;1.10;;;;;;;37.31;21.30;100166.94;5530752;32;34140;-67
2022/06/13 10:49:36;;;;;;;2.37;1.20;;;;;;;36.64;23.05;100169.59;5530289;32;34067;-69
2022/06/13 10:52:43;;;;;;;1.90;1.10;;;;;;;33.66;25.73;100147.16;5531192;32;33976;-69
2022/06/13 10:55:48;;;;;;;1.75;1.20;;;;;;;31.73;28.34;100151.19;5529982;32;32750;-67
2022/06/13 10:58:56;;;;;;;6.05;1.15;;;;;;;30.87;29.21;100147.72;5530686;32;33987;-69
2022/06/13 11:02:01;;;;;;;3.37;1.08;;;;;;;31.63;27.81;100138.56;5530583;32;34077;-68
2022/06/13 11:05:12;;;;;;;1.85;1.08;;;;;;;34.95;24.75;100143.88;5530958;32;33961;-68
2022/06/13 11:08:15;;;;;;;2.08;1.10;;;;;;;34.61;25.18;100139.38;5530683;32;34011;-68
2022/06/13 11:11:32;;;;;;;4.07;1.40;;;;;;;33.51;25.82;100125.66;5531076;32;34660;-67
2022/06/13 11:22:37;;;;;;;1.45;1.00;;;;;;;33.99;25.77;100134.44;5530282;32;34494;-66
2022/06/13 11:25:21;;;;;;;2.28;1.00;;;;;;;34.89;24.70;100115.69;5530275;32;34257;-65
2022/06/13 11:28:28;;;;;;;3.72;1.27;;;;;;;38.69;21.02;100109.59;5530497;32;33936;-66
2022/06/13 11:31:31;;;;;;;1.58;1.12;;;;;;;38.38;21.55;100103.28;5530589;32;34319;-66
2022/06/13 11:34:41;;;;;;;2.10;1.33;;;;;;;36.72;22.08;100092.06;5530218;32;34599;-67
2022/06/13 11:37:43;;;;;;;2.40;1.20;;;;;;;34.76;24.59;100088.41;5530256;32;34585;-67
2022/06/13 11:41:14;;;;;;;2.22;1.30;;;;;;;33.26;26.77;100083.31;5530401;32;33837;-66
2022/06/13 11:44:19;;;;;;;1.55;1.20;;;;;;;31.83;29.39;100076.84;5529823;32;33880;-67
2022/06/13 11:47:23;;;;;;;1.62;1.20;;;;;;;30.39;31.73;100081.66;5529549;32;33567;-68
2022/06/13 11:50:30;;;;;;;5.62;1.50;;;;;;;31.85;30.65;100082.84;5528768;32;32705;-66
2022/06/13 11:53:40;;;;;;;2.95;1.40;;;;;;;31.32;31.83;100075.41;5529773;32;34658;-65
2022/06/13 11:56:42;;;;;;;2.45;1.45;;;;;;;30.97;32.93;100076.28;5529936;32;33894;-66
2022/06/13 11:59:54;;;;;;;2.83;1.42;;;;;;;29.30;34.54;100083.12;5528898;32;33985;-68
2022/06/13 12:03:15;;;;;;;3.87;2.10;;;;;;;29.26;36.12;100079.34;5531505;32;33954;-65
2022/06/13 12:06:18;;;;;;;2.62;1.70;;;;;;;29.15;38.02;100080.59;5531774;32;35159;-67
2022/06/13 12:09:24;;;;;;;4.05;1.75;;;;;;;29.92;37.08;100077.41;5531932;32;34644;-68
2022/06/13 12:12:43;;;;;;;3.08;1.75;;;;;;;30.25;35.35;100070.72;5531295;32;32788;-67
2022/06/13 12:16:12;;;;;;;3.15;1.58;;;;;;;31.63;33.14;100064.50;5531430;32;34605;-69
2022/06/13 12:19:21;;;;;;;2.37;1.60;;;;;;;35.12;29.09;100062.94;5524585;32;33898;-68
2022/06/13 12:22:46;;;;;;;3.85;1.50;;;;;;;36.72;25.32;100063.63;5532033;32;34231;-67
2022/06/13 12:25:59;;;;;;;1.92;1.50;;;;;;;37.01;24.92;100061.31;5532146;32;33894;-70
2022/06/13 12:29:34;;;;;;;4.28;1.62;;;;;;;39.04;21.96;100058.81;5531925;32;34716;-67
2022/06/13 12:33:15;;;;;;;2.10;1.30;;;;;;;40.37;21.11;100044.91;5464875;32;33882;-64
2022/06/13 12:36:28;;;;;;;1.33;1.17;;;;;;;39.72;21.43;100058.13;5504433;32;33592;-67
2022/06/13 12:39:36;;;;;;;4.18;1.50;;;;;;;40.86;20.44;100058.72;5531574;32;33988;-66
2022/06/13 12:42:51;;;;;;;3.65;1.33;;;;;;;39.41;21.94;100042.53;5531973;32;34812;-65
2022/06/13 12:46:16;;;;;;;1.87;1.27;;;;;;;39.71;20.96;100042.62;5531887;32;33914;-65
2022/06/13 12:49:18;;;;;;;6.62;1.45;;;;;;;38.66;21.78;100043.78;5532315;32;34227;-65
2022/06/13 12:52:47;;;;;;;2.65;1.30;;;;;;;35.54;24.51;100028.62;5531887;32;33975;-68
2022/06/13 12:55:55;;;;;;;;;;;;;;;36.03;24.69;100031.44;5531458;32;32807;-66
2022/06/13 12:59:40;;;;;;;2.22;1.37;;;;;;;33.17;30.55;100030.28;5531046;32;34313;-65
2022/06/13 13:03:00;;;;;;;3.65;1.52;;;;;;;33.51;31.12;100016.44;5528979;32;34329;-65
2022/06/13 13:06:08;;;;;;;4.47;1.92;;;;;;;33.51;30.56;100021.13;5531586;32;34640;-64
2022/06/13 13:09:33;;;;;;;3.80;1.70;;;;;;;33.04;31.63;100014.75;5530552;32;34596;-66
2022/06/13 13:12:42;;;;;;;8.98;1.87;;;;;;;32.88;31.34;100022.69;5530697;32;34703;-67
2022/06/13 13:15:58;;;;;;;6.40;1.98;;;;;;;34.61;31.21;100026.41;5530994;32;33957;-67
2022/06/13 13:19:32;;;;;;;2.92;1.55;;;;;;;36.42;27.47;100027.97;5531300;32;34434;-65
2022/06/13 13:23:03;;;;;;;4.50;2.03;;;;;;;35.16;30.81;100028.03;5530480;32;34033;-65
2022/06/13 13:26:27;;;;;;;5.53;2.08;;;;;;;32.02;37.55;100039.00;5530433;32;33832;-64
2022/06/13 13:29:53;;;;;;;4.35;2.40;;;;;;;30.14;41.84;100031.81;5517208;32;33104;-66
2022/06/13 13:33:14;;;;;;;5.30;2.25;;;;;;;29.26;43.36;100032.88;5529660;32;34515;-64
2022/06/13 13:36:25;;;;;;;4.90;2.30;;;;;;;28.94;44.50;100041.88;5530135;32;34320;-63
2022/06/13 13:39:43;;;;;;;4.65;2.35;;;;;;;29.13;44.13;100039.12;5530705;32;34005;-65
2022/06/13 13:42:53;;;;;;;5.00;2.30;;;;;;;28.73;44.84;100042.47;5530156;32;32354;-65
2022/06/13 13:46:03;;;;;;;3.08;2.22;;;;;;;28.92;44.70;100040.56;5530794;32;34684;-66
2022/06/13 13:49:20;;;;;;;5.25;2.25;;;;;;;29.47;43.65;100036.09;5529786;32;34084;-65
2022/06/13 13:52:29;;;;;;;3.00;2.20;;;;;;;29.99;41.45;100034.84;5530592;32;34525;-66
2022/06/13 13:55:38;;;;;;;4.03;2.30;;;;;;;29.78;43.07;100033.59;5530097;32;32533;-66
2022/06/13 13:58:45;;;;;;;2.83;1.90;;;;;;;30.27;39.77;100032.09;5530286;32;33963;-66
2022/06/13 14:02:16;;;;;;;3.60;2.10;;;;;;;29.64;41.36;100030.03;5529431;32;35430;-66
2022/06/13 14:05:43;;;;;;;4.00;2.35;;;;;;;29.45;40.08;100027.37;5530218;32;34077;-68
2022/06/13 14:08:48;;;;;;;5.12;1.70;;;;;;;28.36;41.56;100026.87;5530488;32;34352;-67
2022/06/13 14:12:12;;;;;;;2.42;1.95;;;;;;;28.84;43.24;100024.84;5529185;32;34068;-67
2022/06/13 14:15:29;;;;;;;5.75;2.10;;;;;;;28.90;41.96;100021.72;5530076;32;34072;-67
2022/06/13 14:18:31;;;;;;;3.22;1.73;;;;;;;28.69;41.89;100033.22;5528668;32;32347;-66
2022/06/13 14:21:34;;;;;;;5.60;2.12;;;;;;;28.38;43.07;100019.19;5529231;32;34655;-64
2022/06/13 14:25:07;;;;;;;4.12;1.90;;;;;;;29.28;41.88;100019.75;5528951;32;34486;-66
2022/06/13 14:28:17;;;;;;;5.00;2.55;;;;;;;29.93;40.35;100022.38;5521677;32;35099;-67
2022/06/13 14:31:20;;;;;;;2.33;1.70;;;;;;;29.73;40.45;100020.84;5529354;32;34430;-67
2022/06/13 14:38:35;;;;;;;2.03;1.70;;;;;;;28.77;41.77;100011.56;5528661;32;34404;-66
2022/06/13 14:41:41;;;;;;;6.72;1.77;;;;;;;29.24;41.04;100018.69;5528110;32;32667;-65
2022/06/13 14:44:50;;;;;;;2.03;1.60;;;;;;;29.86;39.29;100019.22;5529124;32;33898;-67
2022/06/13 14:47:55;;;;;;;2.45;1.50;;;;;;;30.47;37.48;100018.81;5529060;32;34287;-67
2022/06/13 14:51:14;;;;;;;2.75;1.50;;;;;;;32.51;33.67;100017.81;5528600;32;33246;-66
2022/06/13 14:54:38;;;;;;;2.25;1.30;;;;;;;32.57;33.17;100011.03;5528879;32;34699;-65
2022/06/13 14:57:44;;;;;;;4.03;1.15;;;;;;;30.98;35.30;100020.34;5529221;32;34569;-66
2022/06/13 15:01:25;;;;;;;2.85;1.30;;;;;;;28.91;39.18;100026.06;5528912;32;35011;-65
2022/06/13 15:04:28;;;;;;;2.03;1.23;;;;;;;28.05;41.76;100023.69;5529318;32;33992;-65
2022/06/13 15:07:53;;;;;;;2.37;1.10;;;;;;;27.39;42.85;100016.22;5528844;32;34202;-65
2022/06/13 15:11:00;;;;;;;1.48;1.20;;;;;;;27.16;43.45;100017.78;5528283;32;32815;-65
2022/06/13 15:14:11;;;;;;;3.55;1.33;;;;;;;27.67;42.71;100028.22;5515130;32;33090;-66
2022/06/13 15:17:17;;;;;;;2.28;1.30;;;;;;;28.14;41.76;100024.69;5528867;32;34561;-66